Time;durP1;ratioP1;P1;durP2;ratioP2;P2;SDS_P1;SDS_P2;PMS_P1;PMS_P2;Temp;Humidity;BMP_temperature;BMP_pressure;BME280_temperature;BME280_humidity;BME280_pressure;Samples;Min_cycle;Max_cycle;Signal;HPM_P1;HPM_P2
2021/10/04 08:49:37;;;;;;;5.47;0.70;;;;;;;17.64;60.46;97704.53;5060142;28;20391;-42
2021/10/04 08:52:03;;;;;;;1.85;0.55;;;;;;;17.65;60.09;97713.56;5051047;28;20036;-41
2021/10/04 08:54:29;;;;;;;2.63;0.32;;;;;;;17.66;60.06;97718.75;5052503;28;20033;-42
2021/10/04 08:56:56;;;;;;;0.70;0.30;;;;;;;17.68;59.97;97713.81;5052930;28;20066;-42
2021/10/04 08:59:21;;;;;;;0.88;0.30;;;;;;;17.69;59.76;97714.59;5054158;28;20075;-42
2021/10/04 09:01:47;;;;;;;2.25;0.30;;;;;;;17.71;59.69;97701.44;5056466;28;20153;-43
2021/10/04 09:04:18;;;;;;;0.98;0.30;;;;;;;17.75;59.37;97716.19;5054886;28;20043;-42
2021/10/04 09:06:43;;;;;;;0.73;0.30;;;;;;;17.76;59.35;97717.81;5055051;28;20061;-42
2021/10/04 09:09:11;;;;;;;0.43;0.20;;;;;;;17.77;59.29;97716.72;5057451;28;20107;-41
2021/10/04 09:11:43;;;;;;;1.00;0.40;;;;;;;17.78;58.99;97706.59;5050948;28;20037;-41
2021/10/04 09:14:16;;;;;;;1.23;0.40;;;;;;;17.80;58.88;97709.84;5046469;28;20032;-42
2021/10/04 09:16:56;;;;;;;1.02;0.30;;;;;;;17.80;58.91;97707.91;5052559;28;20069;-42
2021/10/04 09:19:25;;;;;;;1.00;0.20;;;;;;;17.89;58.70;97712.75;5051753;28;20424;-42
2021/10/04 09:22:14;;;;;;;1.02;0.30;;;;;;;17.87;58.84;97717.72;5057930;28;20025;-41
2021/10/04 09:24:44;;;;;;;1.25;0.30;;;;;;;17.87;58.81;97704.81;5057900;28;20035;-41
2021/10/04 09:27:30;;;;;;;1.27;0.40;;;;;;;17.90;58.73;97711.63;5060706;28;20202;-41
2021/10/04 09:29:57;;;;;;;1.75;0.30;;;;;;;17.90;58.76;97708.91;5061101;28;20056;-42
2021/10/04 09:32:29;;;;;;;1.35;0.30;;;;;;;17.94;58.73;97709.94;5057151;28;20103;-42
2021/10/04 09:35:26;;;;;;;1.00;0.30;;;;;;;17.97;58.63;97703.06;5054366;28;20025;-41
2021/10/04 09:37:58;;;;;;;1.70;0.30;;;;;;;17.98;58.87;97715.69;5046090;28;20646;-42
2021/10/04 09:40:43;;;;;;;;;;;;;;;17.95;58.61;97719.81;5051864;28;20116;-41
2021/10/04 09:43:21;;;;;;;2.22;0.65;;;;;;;17.93;58.90;97728.31;5044545;28;19940;-41
2021/10/04 09:45:57;;;;;;;2.35;0.40;;;;;;;17.96;58.72;97728.84;5047724;28;20127;-42
2021/10/04 09:48:22;;;;;;;1.10;0.35;;;;;;;17.94;58.76;97718.16;5047205;28;20481;-43
2021/10/04 09:50:47;;;;;;;1.20;0.55;;;;;;;17.96;58.85;97715.97;5044992;28;20082;-41
2021/10/04 09:53:13;;;;;;;2.92;0.47;;;;;;;17.98;58.69;97724.69;5054910;28;20105;-42
2021/10/04 09:55:40;;;;;;;1.83;0.45;;;;;;;17.97;58.63;97711.28;5055986;28;20162;-42
2021/10/04 09:58:16;;;;;;;3.05;0.90;;;;;;;17.98;58.63;97710.19;5051839;28;20032;-42
2021/10/04 10:00:52;;;;;;;0.85;0.30;;;;;;;17.97;58.63;97708.53;5026481;28;20498;-42
2021/10/04 10:03:19;;;;;;;2.65;0.40;;;;;;;17.96;58.58;97724.19;5035372;28;20048;-42
2021/10/04 10:05:50;;;;;;;1.70;0.40;;;;;;;17.95;58.45;97714.34;5035936;28;20048;-42
2021/10/04 10:08:16;;;;;;;2.30;0.50;;;;;;;17.93;58.41;97716.53;5034478;28;20661;-42
2021/10/04 10:10:44;;;;;;;1.52;0.25;;;;;;;17.92;58.43;97720.41;5030482;28;20041;-42
2021/10/04 10:13:12;;;;;;;1.67;0.45;;;;;;;17.92;58.50;97714.91;5024994;28;20033;-42
2021/10/04 10:15:38;;;;;;;4.00;0.50;;;;;;;17.91;58.78;97713.28;5037115;28;20144;-41
2021/10/04 10:18:15;;;;;;;2.88;0.52;;;;;;;17.90;58.44;97715.22;5039917;28;20111;-42
2021/10/04 10:20:43;;;;;;;1.98;0.57;;;;;;;17.93;58.65;97708.31;5031745;28;20049;-42
2021/10/04 10:23:08;;;;;;;3.00;0.68;;;;;;;17.95;58.61;97692.44;5003516;28;20033;-42
2021/10/04 10:25:41;;;;;;;0.95;0.50;;;;;;;18.07;58.41;97681.03;5005995;28;20115;-42
2021/10/04 10:28:33;;;;;;;3.83;0.50;;;;;;;18.25;58.14;97681.38;5011669;28;20029;-40
2021/10/04 10:31:00;;;;;;;1.42;0.50;;;;;;;18.24;58.05;97696.22;5009886;28;20379;-41
2021/10/04 10:33:48;;;;;;;9.60;0.88;;;;;;;18.25;58.37;97690.44;5004536;28;20035;-41
2021/10/04 10:36:16;;;;;;;1.45;0.43;;;;;;;18.25;58.43;97692.34;5004107;28;20113;-41
2021/10/04 10:39:03;;;;;;;2.50;1.17;;;;;;;18.27;58.29;97698.34;5004517;28;20040;-42
2021/10/04 10:41:28;;;;;;;31.17;3.63;;;;;;;18.28;58.50;97697.25;5002923;28;20095;-41
2021/10/04 10:44:07;;;;;;;14.32;1.30;;;;;;;18.32;58.33;97688.13;5004758;28;20478;-42
2021/10/04 10:46:42;;;;;;;10.18;0.80;;;;;;;18.33;58.06;97688.94;4997901;28;20080;-42
2021/10/04 10:49:07;;;;;;;6.43;0.90;;;;;;;18.32;58.09;97696.34;5009007;28;20045;-42
2021/10/04 10:51:32;;;;;;;7.53;0.88;;;;;;;18.31;58.20;97699.38;5004676;28;20127;-41
2021/10/04 10:54:36;;;;;;;6.65;0.65;;;;;;;18.36;58.26;97704.00;5011486;28;20057;-41
2021/10/04 10:57:02;;;;;;;2.20;0.68;;;;;;;18.38;57.81;97696.28;5003222;28;20046;-42
2021/10/04 10:59:27;;;;;;;5.05;0.52;;;;;;;18.39;58.17;97709.69;5004574;28;20038;-42
2021/10/04 11:01:52;;;;;;;3.10;0.65;;;;;;;18.39;58.01;97709.69;5000546;28;20026;-41
2021/10/04 11:04:38;;;;;;;4.60;1.17;;;;;;;18.46;57.87;97696.44;5000491;28;20030;-43
2021/10/04 11:07:04;;;;;;;5.28;0.73;;;;;;;18.39;57.79;97693.25;5016597;28;20443;-43
2021/10/04 11:10:06;;;;;;;3.17;0.40;;;;;;;18.41;57.76;97691.03;4999569;28;20058;-43
2021/10/04 11:13:09;;;;;;;1.75;0.45;;;;;;;18.42;57.37;97689.09;5000188;28;20568;-44
2021/10/04 11:15:35;;;;;;;2.22;0.30;;;;;;;18.41;57.43;97690.19;5009811;28;20033;-43
2021/10/04 11:18:00;;;;;;;6.35;0.60;;;;;;;18.38;57.39;97688.88;5000267;28;20022;-43
2021/10/04 11:20:26;;;;;;;3.42;0.50;;;;;;;18.40;57.03;97685.84;5009036;28;20041;-44
2021/10/04 11:23:16;;;;;;;2.22;0.80;;;;;;;18.41;56.71;97679.25;5003532;28;20133;-42
2021/10/04 11:25:41;;;;;;;3.08;0.60;;;;;;;18.43;56.46;97674.28;5001608;28;20033;-43
2021/10/04 11:28:08;;;;;;;1.15;0.40;;;;;;;18.44;56.54;97664.94;5002659;28;20057;-43
2021/10/04 11:30:56;;;;;;;1.02;0.45;;;;;;;18.49;56.34;97673.09;5002751;28;20161;-43
2021/10/04 11:33:22;;;;;;;1.42;0.50;;;;;;;18.45;56.55;97674.78;4998458;28;20029;-42
2021/10/04 11:35:55;;;;;;;2.53;0.50;;;;;;;18.49;56.37;97670.34;5005088;28;20037;-43
2021/10/04 11:38:20;;;;;;;1.33;0.30;;;;;;;18.49;56.19;97672.25;5004718;28;20037;-42
2021/10/04 11:40:47;;;;;;;1.02;0.30;;;;;;;18.48;55.94;97673.38;4992788;28;20044;-42
2021/10/04 11:43:13;;;;;;;2.35;1.10;;;;;;;18.47;56.23;97672.59;5001616;28;20105;-42
2021/10/04 11:45:38;;;;;;;2.38;1.00;;;;;;;18.51;55.96;97673.63;4991879;28;20100;-42
2021/10/04 11:48:04;;;;;;;1.83;0.88;;;;;;;18.56;55.62;97672.72;5001672;28;20026;-42
2021/10/04 11:50:32;;;;;;;1.88;0.70;;;;;;;18.55;55.68;97671.09;5002537;28;20768;-42
2021/10/04 11:53:00;;;;;;;2.17;0.82;;;;;;;18.57;55.77;97677.91;4997706;28;20137;-48
2021/10/04 11:55:26;;;;;;;1.30;0.60;;;;;;;18.57;55.66;97663.38;4992830;28;20036;-50
2021/10/04 11:57:51;;;;;;;1.45;0.50;;;;;;;18.57;56.10;97666.94;4998813;28;20269;-47
2021/10/04 12:00:17;;;;;;;1.52;0.40;;;;;;;18.56;55.94;97670.81;4996161;28;20072;-42
2021/10/04 12:02:49;;;;;;;3.15;0.30;;;;;;;18.58;56.17;97670.50;5009292;28;20026;-39
2021/10/04 12:05:28;;;;;;;2.75;0.80;;;;;;;18.52;56.06;97668.94;5005464;28;20029;-39
2021/10/04 12:08:00;;;;;;;1.10;0.55;;;;;;;18.48;56.19;97665.16;5000916;28;20026;-38
2021/10/04 12:10:57;;;;;;;1.67;0.57;;;;;;;18.47;56.11;97667.09;4995867;28;20121;-41
2021/10/04 12:13:24;;;;;;;1.92;0.60;;;;;;;18.49;56.31;97666.78;5003661;28;20022;-43
2021/10/04 12:15:52;;;;;;;1.15;0.50;;;;;;;18.53;56.53;97665.06;4995559;28;20112;-43
2021/10/04 12:18:18;;;;;;;1.75;0.80;;;;;;;18.61;56.29;97660.88;4999294;28;20026;-45
2021/10/04 12:20:44;;;;;;;1.98;0.50;;;;;;;18.62;56.30;97655.09;4987233;28;20030;-41
2021/10/04 12:23:18;;;;;;;4.50;0.50;;;;;;;18.61;56.42;97650.69;5001203;28;20037;-41
2021/10/04 12:25:43;;;;;;;1.77;1.35;;;;;;;18.58;56.34;97645.81;4994146;28;20092;-41
2021/10/04 12:28:10;;;;;;;1.15;0.50;;;;;;;18.54;56.37;97656.56;5001501;28;20493;-41
2021/10/04 12:30:44;;;;;;;2.63;0.52;;;;;;;18.53;56.20;97643.16;4996427;28;20445;-41
2021/10/04 12:33:09;;;;;;;3.28;0.63;;;;;;;18.52;56.28;97650.56;4990209;28;20042;-41
2021/10/04 12:35:35;;;;;;;2.65;0.50;;;;;;;18.50;56.55;97651.97;5001926;28;20037;-41
2021/10/04 12:38:06;;;;;;;1.08;0.50;;;;;;;18.45;56.53;97650.94;5003723;28;20037;-41
2021/10/04 12:40:46;;;;;;;1.35;0.50;;;;;;;18.46;56.47;97644.34;5003632;28;20030;-41
2021/10/04 12:43:22;;;;;;;1.77;0.68;;;;;;;18.49;56.37;97640.19;4998488;28;20030;-38
2021/10/04 12:46:07;;;;;;;2.58;0.50;;;;;;;18.51;56.29;97637.97;4995287;28;20034;-43
2021/10/04 12:48:37;;;;;;;1.42;0.47;;;;;;;18.47;56.30;97634.22;4997746;28;20022;-43
2021/10/04 12:51:08;;;;;;;1.35;0.63;;;;;;;18.49;56.66;97631.97;5000611;28;20044;-48
2021/10/04 12:53:46;;;;;;;1.87;0.90;;;;;;;18.51;56.62;97620.72;5010203;28;20502;-43
2021/10/04 12:56:12;;;;;;;1.17;0.47;;;;;;;18.49;56.46;97615.50;4997870;28;20338;-43
2021/10/04 12:58:38;;;;;;;1.02;0.40;;;;;;;18.46;56.67;97611.44;5007300;28;20076;-43
2021/10/04 13:01:21;;;;;;;1.92;0.52;;;;;;;18.46;56.63;97610.63;4998663;28;20034;-43
2021/10/04 13:04:01;;;;;;;0.77;0.47;;;;;;;18.47;56.81;97604.06;5005209;28;20025;-43
2021/10/04 13:06:31;;;;;;;3.60;0.70;;;;;;;18.49;56.81;97607.28;5008338;28;20095;-43
2021/10/04 13:08:57;;;;;;;7.82;0.75;;;;;;;18.49;56.83;97609.22;5010260;28;20029;-43
2021/10/04 13:11:23;;;;;;;0.93;0.40;;;;;;;18.49;56.59;97607.28;5000639;28;20034;-43
2021/10/04 13:13:50;;;;;;;2.30;0.32;;;;;;;18.48;56.76;97607.59;5000526;28;20405;-43
2021/10/04 13:16:15;;;;;;;3.67;0.40;;;;;;;18.48;56.86;97619.38;5000865;28;20022;-43
2021/10/04 13:18:41;;;;;;;3.20;0.60;;;;;;;18.49;56.72;97622.91;4994129;28;20018;-43
2021/10/04 13:21:07;;;;;;;1.17;0.47;;;;;;;18.48;56.63;97627.59;5002311;28;20426;-41
2021/10/04 13:23:33;;;;;;;0.70;0.30;;;;;;;18.49;56.80;97620.19;5002073;28;20026;-41
2021/10/04 13:26:01;;;;;;;3.03;0.63;;;;;;;18.48;56.66;97624.03;5003777;28;20029;-43
2021/10/04 13:28:27;;;;;;;1.40;0.60;;;;;;;18.48;56.74;97622.13;5002961;28;20222;-41
2021/10/04 13:30:52;;;;;;;0.77;0.38;;;;;;;18.49;56.66;97626.47;5002456;28;20034;-43
2021/10/04 13:33:18;;;;;;;1.13;0.40;;;;;;;18.48;56.65;97619.38;5002550;28;20026;-43
2021/10/04 13:35:43;;;;;;;1.08;0.40;;;;;;;18.49;56.75;97625.66;5005202;28;20061;-43
2021/10/04 13:38:09;;;;;;;1.35;0.50;;;;;;;18.50;56.67;97619.09;5005210;28;20034;-43
2021/10/04 13:40:37;;;;;;;1.35;0.50;;;;;;;18.49;56.67;97617.44;5006263;28;20025;-43
2021/10/04 13:43:02;;;;;;;0.50;0.28;;;;;;;18.48;56.79;97611.16;5004414;28;20054;-43
2021/10/04 13:45:28;;;;;;;1.95;0.50;;;;;;;18.49;56.82;97610.03;5000510;28;20109;-43
2021/10/04 13:47:53;;;;;;;0.80;0.50;;;;;;;18.49;56.73;97610.03;5002502;28;20595;-43
2021/10/04 13:50:20;;;;;;;0.73;0.40;;;;;;;18.50;56.54;97602.63;5006524;28;20038;-43
2021/10/04 13:52:46;;;;;;;1.13;0.40;;;;;;;18.51;56.78;97604.25;5013164;28;20029;-43
2021/10/04 13:55:11;;;;;;;1.05;0.38;;;;;;;18.51;56.68;97596.84;5009104;28;20032;-43
2021/10/04 13:57:37;;;;;;;1.30;0.50;;;;;;;18.53;56.73;97599.28;5007496;28;20079;-43
2021/10/04 14:00:05;;;;;;;3.40;0.55;;;;;;;18.53;56.52;97591.88;5006192;28;20033;-43
2021/10/04 14:02:31;;;;;;;1.80;0.60;;;;;;;18.53;56.72;97591.03;5005287;28;20069;-43
2021/10/04 14:04:57;;;;;;;0.70;0.32;;;;;;;18.53;56.66;97582.81;5004065;28;20056;-43
2021/10/04 14:07:22;;;;;;;1.23;0.40;;;;;;;18.53;56.62;97582.81;5004702;28;20281;-43
2021/10/04 14:09:48;;;;;;;1.88;0.50;;;;;;;18.54;56.42;97581.72;5005664;28;20355;-43
2021/10/04 14:12:13;;;;;;;0.90;0.30;;;;;;;18.53;56.46;97569.94;5004482;28;20409;-43
2021/10/04 14:14:38;;;;;;;1.27;0.38;;;;;;;18.54;56.48;97568.81;5005391;28;20121;-43
2021/10/04 14:17:04;;;;;;;1.50;0.50;;;;;;;18.53;56.60;97567.19;5006134;28;20087;-43
2021/10/04 14:19:29;;;;;;;0.77;0.30;;;;;;;18.54;56.57;97560.59;5007246;28;20057;-43
2021/10/04 14:21:55;;;;;;;1.05;0.30;;;;;;;18.55;56.67;97561.41;5006486;28;20037;-43
2021/10/04 14:24:20;;;;;;;0.75;0.35;;;;;;;18.54;56.41;97551.56;5007341;28;20072;-43
2021/10/04 14:26:46;;;;;;;2.45;0.50;;;;;;;18.54;56.71;97568.03;5006902;28;20033;-43
2021/10/04 14:29:11;;;;;;;1.33;0.40;;;;;;;18.56;56.67;97565.78;5007078;28;20100;-43
2021/10/04 14:31:36;;;;;;;0.70;0.38;;;;;;;18.55;56.56;97575.94;5006377;28;20119;-41
2021/10/04 14:34:02;;;;;;;1.30;0.40;;;;;;;18.54;56.72;97559.78;5007031;28;20022;-41
2021/10/04 14:36:27;;;;;;;1.63;0.40;;;;;;;18.55;56.59;97553.19;5006416;28;20370;-41
2021/10/04 14:38:55;;;;;;;1.17;0.40;;;;;;;18.54;56.69;97560.59;5006584;28;20036;-41
2021/10/04 14:41:21;;;;;;;1.70;0.52;;;;;;;18.55;56.57;97561.41;5006430;28;20030;-41
2021/10/04 14:43:46;;;;;;;1.02;0.50;;;;;;;18.55;56.63;97570.47;4995833;28;20093;-41
2021/10/04 14:46:12;;;;;;;1.02;0.40;;;;;;;18.55;56.48;97554.00;4997992;28;20105;-41
2021/10/04 14:48:37;;;;;;;0.77;0.40;;;;;;;18.55;56.49;97553.19;5005818;28;20033;-41
2021/10/04 14:51:03;;;;;;;0.82;0.30;;;;;;;18.56;56.46;97555.63;5006247;28;20497;-41
2021/10/04 14:53:29;;;;;;;0.77;0.40;;;;;;;18.57;56.61;97554.50;5005270;28;20045;-41
2021/10/04 14:55:54;;;;;;;0.50;0.20;;;;;;;18.56;56.60;97552.06;5010400;28;20038;-41
2021/10/04 14:58:19;;;;;;;2.22;0.47;;;;;;;18.56;56.55;97555.63;5008729;28;20028;-41
2021/10/04 15:00:47;;;;;;;0.80;0.30;;;;;;;18.54;56.99;97552.38;5012411;28;20474;-43
2021/10/04 15:03:12;;;;;;;1.73;0.50;;;;;;;18.30;57.35;97547.84;5008082;28;20036;-44
2021/10/04 15:05:38;;;;;;;0.85;0.40;;;;;;;17.87;58.43;97551.44;4996340;28;20034;-45
2021/10/04 15:08:03;;;;;;;5.15;0.60;;;;;;;17.99;58.60;97553.72;5004817;28;20061;-46
2021/10/04 15:10:30;;;;;;;1.58;0.40;;;;;;;18.15;58.21;97561.75;5002862;28;20076;-44
2021/10/04 15:12:56;;;;;;;5.72;0.70;;;;;;;18.28;57.87;97566.50;5003256;28;20060;-45
2021/10/04 15:15:21;;;;;;;2.38;0.68;;;;;;;18.27;57.80;97569.53;5000342;28;20132;-43
2021/10/04 15:17:47;;;;;;;1.35;0.57;;;;;;;18.37;57.33;97572.13;5013831;28;20379;-42
2021/10/04 15:20:12;;;;;;;3.63;0.70;;;;;;;18.26;57.57;97570.66;5004394;28;20104;-40
2021/10/04 15:22:37;;;;;;;3.10;0.60;;;;;;;18.26;58.23;97578.88;5006419;28;20033;-34
2021/10/04 15:25:03;;;;;;;5.80;0.70;;;;;;;18.30;58.44;97583.47;5005555;28;20103;-42
2021/10/04 15:27:29;;;;;;;1.30;0.68;;;;;;;18.11;57.57;97575.25;5004991;28;20037;-36
2021/10/04 15:29:55;;;;;;;2.92;0.70;;;;;;;17.92;58.91;97565.06;5005498;28;20060;-41
2021/10/04 15:32:20;;;;;;;1.60;0.63;;;;;;;18.13;58.05;97556.56;5005243;28;20521;-36
2021/10/04 15:34:46;;;;;;;1.95;0.57;;;;;;;18.20;57.33;97551.53;4997697;28;20060;-42
2021/10/04 15:37:11;;;;;;;3.40;0.47;;;;;;;18.00;57.96;97552.63;5004477;28;20034;-44
2021/10/04 15:39:36;;;;;;;2.30;0.65;;;;;;;17.95;58.26;97552.72;5003057;28;20112;-44
2021/10/04 15:42:02;;;;;;;3.33;0.70;;;;;;;18.00;58.22;97560.03;4999755;28;20058;-43
2021/10/04 15:44:27;;;;;;;2.80;0.73;;;;;;;17.98;58.34;97565.81;4994549;28;20118;-43
2021/10/04 15:46:53;;;;;;;3.00;0.93;;;;;;;18.06;58.19;97565.13;4995213;28;20092;-44
2021/10/04 15:49:18;;;;;;;2.22;0.80;;;;;;;18.02;58.33;97553.16;4997769;28;20473;-44
2021/10/04 15:51:44;;;;;;;1.30;0.70;;;;;;;18.03;58.14;97549.28;5002463;28;20786;-43
2021/10/04 15:54:09;;;;;;;4.97;1.40;;;;;;;18.05;58.28;97544.34;4996496;28;20033;-43
2021/10/04 15:56:35;;;;;;;1.98;1.10;;;;;;;17.62;59.41;97544.41;5003269;28;20037;-43
2021/10/04 15:59:00;;;;;;;2.00;0.88;;;;;;;17.15;61.07;97534.81;4999788;28;20075;-44
2021/10/04 16:01:26;;;;;;;2.17;0.80;;;;;;;17.74;59.45;97542.06;5001653;28;20148;-42
2021/10/04 16:03:51;;;;;;;1.65;1.02;;;;;;;18.06;58.75;97556.91;4982446;28;21748;-45
2021/10/04 16:06:17;;;;;;;3.67;0.73;;;;;;;18.19;58.36;97568.28;5005219;28;20038;-44
2021/10/04 16:10:54;;;;;;;2.40;1.23;;;;;;;14.21;70.64;97558.66;5063689;27;20401;-79
2021/10/04 16:13:21;;;;;;;4.43;2.10;;;;;;;12.93;76.96;97560.66;5056300;28;20037;-78
2021/10/04 16:15:46;;;;;;;2.88;1.75;;;;;;;12.46;79.19;97546.78;5041130;28;20036;-79
2021/10/04 16:18:12;;;;;;;2.92;1.60;;;;;;;12.32;80.77;97547.19;5047959;28;20040;-78
2021/10/04 16:20:38;;;;;;;4.28;2.08;;;;;;;12.28;80.35;97547.97;5044976;28;20582;-78
2021/10/04 16:23:04;;;;;;;3.97;2.03;;;;;;;12.34;80.18;97547.75;5040421;28;20078;-78
2021/10/04 16:25:40;;;;;;;3.92;2.22;;;;;;;12.23;80.64;97546.03;5058733;28;20063;-78
2021/10/04 16:28:07;;;;;;;4.60;2.58;;;;;;;12.13;81.68;97535.91;5071834;28;20041;-78
2021/10/04 16:30:33;;;;;;;3.95;2.42;;;;;;;12.15;82.21;97530.22;5039168;28;20026;-78
2021/10/04 16:32:59;;;;;;;7.15;2.58;;;;;;;12.09;82.06;97529.38;5040174;28;20033;-78
2021/10/04 16:35:24;;;;;;;3.60;2.22;;;;;;;12.22;81.11;97522.69;5039684;28;20864;-78
2021/10/04 16:37:50;;;;;;;4.10;2.53;;;;;;;12.16;81.51;97510.16;5038953;28;20119;-78
2021/10/04 16:40:16;;;;;;;4.72;3.00;;;;;;;12.04;82.81;97486.69;5037694;28;20059;-78
2021/10/04 16:42:42;;;;;;;3.90;2.70;;;;;;;12.08;82.12;97490.53;5035994;28;20083;-78
2021/10/04 16:45:09;;;;;;;6.50;3.80;;;;;;;11.92;82.81;97495.00;5043288;28;20037;-78
2021/10/04 16:47:34;;;;;;;5.15;3.10;;;;;;;11.89;82.78;97492.78;5040870;28;20029;-78
2021/10/04 16:50:00;;;;;;;4.90;3.35;;;;;;;11.96;82.55;97496.13;5049776;28;20188;-78
2021/10/04 16:52:25;;;;;;;10.13;5.97;;;;;;;11.89;82.92;97503.66;5040849;28;20037;-78
2021/10/04 16:54:51;;;;;;;8.90;5.80;;;;;;;11.91;82.92;97497.97;5049586;28;20040;-78
2021/10/04 16:57:17;;;;;;;9.00;5.93;;;;;;;11.82;83.50;97495.72;5045062;28;20040;-78
2021/10/04 16:59:45;;;;;;;8.70;5.30;;;;;;;11.73;84.17;97485.59;5070529;28;20029;-78
2021/10/04 17:02:10;;;;;;;6.13;4.45;;;;;;;11.78;83.44;97483.75;5055332;28;20025;-78
2021/10/04 17:04:36;;;;;;;5.35;3.85;;;;;;;11.84;83.11;97490.03;5034632;28;20456;-79
2021/10/04 17:07:01;;;;;;;5.78;3.38;;;;;;;11.77;83.04;97490.25;5032830;28;20092;-78
2021/10/04 17:09:28;;;;;;;4.97;3.00;;;;;;;11.71;84.22;97497.50;5039147;28;20140;-78
2021/10/04 17:11:54;;;;;;;6.93;3.50;;;;;;;11.72;84.11;97495.59;5046901;28;20029;-78
2021/10/04 17:14:20;;;;;;;6.43;3.70;;;;;;;11.61;84.37;97491.97;5041252;28;20086;-78
2021/10/04 17:16:47;;;;;;;7.57;3.65;;;;;;;11.69;84.32;97491.50;5040734;28;20044;-78
2021/10/04 17:19:12;;;;;;;5.22;3.30;;;;;;;11.68;83.82;97500.72;5038691;28;20539;-78
2021/10/04 17:21:38;;;;;;;5.82;3.80;;;;;;;11.66;84.04;97494.75;5059856;28;20060;-78
2021/10/04 17:24:03;;;;;;;5.75;3.72;;;;;;;11.57;83.99;97486.25;5027454;28;20369;-78
2021/10/04 17:26:29;;;;;;;5.97;4.10;;;;;;;11.60;83.87;97501.19;5018646;28;20068;-78
2021/10/04 17:28:59;;;;;;;5.95;4.30;;;;;;;11.60;84.46;97506.63;5026828;28;20029;-78
2021/10/04 17:31:30;;;;;;;5.93;3.92;;;;;;;11.54;84.32;97511.16;5024566;28;20052;-78
2021/10/04 17:33:56;;;;;;;4.78;3.60;;;;;;;11.46;85.18;97514.31;5031125;28;20068;-78
2021/10/04 17:36:22;;;;;;;4.78;3.47;;;;;;;11.47;84.23;97513.28;5027692;28;20029;-78
2021/10/04 17:38:51;;;;;;;5.45;3.80;;;;;;;11.46;84.57;97506.19;5032939;28;20041;-78
2021/10/04 17:41:18;;;;;;;6.07;4.10;;;;;;;11.37;85.35;97496.88;5012370;28;20486;-77
2021/10/04 17:43:44;;;;;;;8.27;3.60;;;;;;;11.34;85.56;97483.81;5036069;28;20036;-78
2021/10/04 17:46:10;;;;;;;5.78;3.95;;;;;;;11.32;85.03;97493.03;5061004;28;20036;-78
2021/10/04 17:48:35;;;;;;;5.20;3.97;;;;;;;11.35;84.87;97485.47;5025135;28;20025;-78
2021/10/04 17:51:01;;;;;;;6.38;3.88;;;;;;;11.32;84.73;97482.19;5057673;28;20033;-78
2021/10/04 17:53:27;;;;;;;5.43;3.33;;;;;;;11.30;84.84;97478.09;5041375;28;20053;-78
2021/10/04 17:55:54;;;;;;;5.13;3.42;;;;;;;11.34;84.73;97487.38;5037434;28;20076;-78
2021/10/04 17:58:20;;;;;;;5.53;3.90;;;;;;;11.33;84.59;97483.03;5035593;28;20133;-77
2021/10/04 18:00:47;;;;;;;5.60;3.63;;;;;;;11.24;85.02;97476.41;5024892;28;20028;-77
2021/10/04 18:03:13;;;;;;;6.20;4.05;;;;;;;11.22;85.20;97473.97;5031653;28;20036;-77
2021/10/04 18:05:38;;;;;;;5.75;4.28;;;;;;;11.16;85.50;97475.78;5047901;28;20026;-77
2021/10/04 18:08:04;;;;;;;5.70;4.15;;;;;;;11.14;85.67;97474.41;5047623;28;20037;-77
2021/10/04 18:10:29;;;;;;;6.18;4.25;;;;;;;11.20;85.73;97465.25;5029459;28;20021;-77
2021/10/04 18:12:55;;;;;;;7.30;4.25;;;;;;;11.15;85.59;97462.47;5023638;28;20045;-77
2021/10/04 18:15:21;;;;;;;6.07;4.45;;;;;;;11.10;86.12;97478.69;5027754;28;20483;-77
2021/10/04 18:17:46;;;;;;;5.57;3.63;;;;;;;11.22;85.80;97479.38;5013427;28;20033;-77
2021/10/04 18:20:14;;;;;;;7.85;4.28;;;;;;;11.18;85.77;97467.41;5030150;28;20075;-77
2021/10/04 18:22:41;;;;;;;5.97;4.60;;;;;;;11.12;86.31;97466.53;5024597;28;20044;-78
2021/10/04 18:25:07;;;;;;;6.45;4.60;;;;;;;11.08;86.00;97468.09;5026570;28;20034;-77
2021/10/04 18:27:32;;;;;;;7.22;4.45;;;;;;;11.10;86.61;97459.72;5035559;28;20396;-77
2021/10/04 18:29:57;;;;;;;8.43;4.38;;;;;;;11.14;86.72;97458.97;5027125;28;20149;-77
2021/10/04 18:32:23;;;;;;;7.93;4.70;;;;;;;11.14;86.20;97466.28;5057446;28;20033;-77
2021/10/04 18:34:49;;;;;;;9.02;4.97;;;;;;;11.17;86.08;97463.84;5022109;28;20033;-77
2021/10/04 18:37:15;;;;;;;7.78;4.93;;;;;;;11.21;85.79;97455.22;5022597;28;20101;-77
2021/10/04 18:39:41;;;;;;;8.00;4.32;;;;;;;11.26;85.18;97463.41;5017447;28;20086;-77
2021/10/04 18:42:06;;;;;;;9.15;4.65;;;;;;;11.24;84.65;97458.25;5032520;28;20041;-77
2021/10/04 18:44:32;;;;;;;8.85;5.68;;;;;;;11.19;84.82;97463.59;5063303;28;20502;-77
2021/10/04 18:46:58;;;;;;;8.52;5.38;;;;;;;11.17;84.83;97461.16;5031808;28;20651;-77
2021/10/04 18:49:24;;;;;;;8.38;5.15;;;;;;;11.19;85.95;97455.47;5032340;28;20028;-77
2021/10/04 18:51:49;;;;;;;7.97;5.40;;;;;;;11.20;85.62;97454.41;5036417;28;20045;-77
2021/10/04 18:54:15;;;;;;;9.45;5.93;;;;;;;11.23;85.66;97458.50;5030362;28;20053;-77
2021/10/04 18:56:41;;;;;;;8.13;5.53;;;;;;;11.25;85.06;97464.50;5038147;28;20033;-77
2021/10/04 18:59:06;;;;;;;9.23;6.93;;;;;;;11.22;85.12;97473.13;5023178;28;20017;-77
2021/10/04 19:01:32;;;;;;;11.35;8.25;;;;;;;11.16;85.61;97462.22;5021612;28;20033;-77
2021/10/04 19:03:57;;;;;;;10.07;7.10;;;;;;;11.12;85.96;97452.97;5033441;28;20059;-77
2021/10/04 19:06:22;;;;;;;9.13;6.60;;;;;;;11.17;85.93;97449.50;5036065;28;20029;-77
2021/10/04 19:08:48;;;;;;;9.23;6.47;;;;;;;11.20;85.71;97443.56;5032128;28;20496;-79
2021/10/04 19:11:13;;;;;;;9.75;6.72;;;;;;;11.15;85.46;97443.50;5027702;28;20447;-79
2021/10/04 19:13:39;;;;;;;10.85;6.78;;;;;;;11.19;85.81;97458.19;5024850;28;20023;-79
2021/10/04 19:16:04;;;;;;;11.40;7.25;;;;;;;11.21;85.71;97461.47;5031639;28;20025;-79
2021/10/04 19:18:30;;;;;;;10.23;7.53;;;;;;;11.13;86.22;97456.50;5026458;28;20045;-79
2021/10/04 19:20:55;;;;;;;11.45;8.23;;;;;;;11.18;85.86;97459.28;5025032;28;20314;-79
2021/10/04 19:23:20;;;;;;;11.77;8.32;;;;;;;11.21;86.23;97450.63;5024114;28;20044;-79
2021/10/04 19:25:46;;;;;;;10.15;7.88;;;;;;;11.24;85.87;97438.47;5024176;28;20029;-79
2021/10/04 19:28:11;;;;;;;12.73;8.73;;;;;;;11.22;86.20;97454.97;5022896;28;20136;-79
2021/10/04 19:30:37;;;;;;;11.23;8.32;;;;;;;11.13;85.56;97457.31;5024297;28;20029;-77
2021/10/04 19:33:03;;;;;;;11.23;8.98;;;;;;;11.14;85.84;97458.13;5024728;28;20777;-77
2021/10/04 19:35:29;;;;;;;11.38;8.90;;;;;;;11.08;86.21;97459.97;5029158;28;20108;-77
2021/10/04 19:37:55;;;;;;;11.25;8.98;;;;;;;11.08;86.46;97438.28;5023485;28;20108;-77
2021/10/04 19:40:20;;;;;;;11.23;8.77;;;;;;;10.99;86.46;97435.19;5009188;28;20029;-77
2021/10/04 19:42:46;;;;;;;11.27;9.60;;;;;;;11.02;86.24;97423.84;5021629;28;20037;-77
2021/10/04 19:45:14;;;;;;;10.68;8.38;;;;;;;11.07;86.33;97428.53;5031115;28;20029;-77
2021/10/04 19:47:41;;;;;;;12.57;9.55;;;;;;;11.01;86.25;97422.22;5053066;28;20052;-77
2021/10/04 19:50:08;;;;;;;12.57;9.60;;;;;;;10.99;86.63;97412.72;5021565;28;20029;-77
2021/10/04 19:52:34;;;;;;;15.52;10.57;;;;;;;11.00;86.43;97398.09;5021406;28;20489;-77
2021/10/04 19:55:04;;;;;;;13.52;10.43;;;;;;;11.02;86.24;97388.63;5023793;28;20037;-77
2021/10/04 19:57:30;;;;;;;13.55;9.85;;;;;;;11.08;86.85;97394.94;5025672;28;20021;-77
2021/10/04 19:59:55;;;;;;;16.08;11.65;;;;;;;11.05;86.30;97390.03;5032612;28;20025;-77
2021/10/04 20:02:23;;;;;;;14.38;10.18;;;;;;;11.02;86.21;97395.97;5031402;28;20033;-77
2021/10/04 20:04:48;;;;;;;14.88;11.50;;;;;;;10.98;86.35;97384.00;5027794;28;20795;-77
2021/10/04 20:07:13;;;;;;;13.73;10.48;;;;;;;11.01;86.15;97384.31;5022423;28;20520;-77
2021/10/04 20:09:39;;;;;;;16.33;10.25;;;;;;;11.05;86.44;97390.84;5021943;28;20706;-77
2021/10/04 20:12:04;;;;;;;15.30;11.00;;;;;;;11.05;86.53;97395.44;5027028;28;20037;-77
2021/10/04 20:14:30;;;;;;;15.88;12.25;;;;;;;10.98;86.18;97392.94;5024039;28;20033;-77
2021/10/04 20:16:56;;;;;;;15.85;11.60;;;;;;;10.97;86.43;97398.59;5018824;28;20041;-77
2021/10/04 20:19:21;;;;;;;15.32;11.20;;;;;;;10.95;86.52;97400.75;5020113;28;20064;-77
2021/10/04 20:21:49;;;;;;;14.38;11.05;;;;;;;10.95;86.93;97407.00;5021200;28;20112;-77
2021/10/04 20:26:45;;;;;;;14.00;9.70;;;;;;;10.96;86.36;97414.06;5027474;28;20704;-77
2021/10/04 20:29:11;;;;;;;14.73;10.35;;;;;;;10.97;86.58;97406.72;5028146;28;20026;-78